Time;durP1;ratioP1;P1;durP2;ratioP2;P2;SDS_P1;SDS_P2;PMS_P1;PMS_P2;Temp;Humidity;BMP_temperature;BMP_pressure;BME280_temperature;BME280_humidity;BME280_pressure;Samples;Min_cycle;Max_cycle;Signal;HPM_P1;HPM_P2
2023/03/12 00:01:53;;;;;;;12.73;4.50;;;;;;;;;;12817423;19;20340;-66
2023/03/12 00:12:38;;;;;;;6.70;2.72;;;;;;;;;;12823123;19;20796;-67
2023/03/12 00:17:50;;;;;;;4.90;2.33;;;;;;;;;;12824436;19;20011;-67
2023/03/12 00:22:15;;;;;;;5.18;2.83;;;;;;;;;;12825152;19;20489;-67
2023/03/12 00:32:25;;;;;;;6.55;3.30;;;;;;;;;;12816043;19;20114;-67
2023/03/12 00:37:11;;;;;;;5.78;2.80;;;;;;;;;;12816198;19;20362;-67
2023/03/12 00:41:49;;;;;;;4.10;2.83;;;;;;;;;;12820952;19;20606;-67
2023/03/12 00:46:30;;;;;;;6.03;2.97;;;;;;;;;;12824582;19;20514;-68
2023/03/12 00:51:20;;;;;;;5.90;2.80;;;;;;;;;;12821725;19;20317;-67
2023/03/12 00:55:43;;;;;;;5.22;2.92;;;;;;;;;;12822426;19;20434;-67
2023/03/12 01:00:29;;;;;;;8.73;4.03;;;;;;;;;;12823298;19;20351;-68
2023/03/12 01:05:43;;;;;;;4.43;2.83;;;;;;;;;;12823757;19;20010;-67
2023/03/12 01:10:39;;;;;;;7.35;2.70;;;;;;;;;;12818807;19;20331;-67
2023/03/12 01:15:49;;;;;;;5.05;2.83;;;;;;;;;;12823047;19;20383;-66
2023/03/12 01:21:12;;;;;;;10.73;3.88;;;;;;;;;;12711255;19;2005096;-67
2023/03/12 01:26:15;;;;;;;7.57;3.72;;;;;;;;;;12821393;19;20348;-67
2023/03/12 01:30:47;;;;;;;4.00;2.75;;;;;;;;;;12819789;19;20295;-67
2023/03/12 01:41:24;;;;;;;6.85;3.05;;;;;;;;;;12815607;19;20469;-68
2023/03/12 01:52:54;;;;;;;5.03;2.47;;;;;;;;;;12818378;19;20359;-67
2023/03/12 01:58:12;;;;;;;4.40;2.58;;;;;;;;;;12820644;19;20442;-66
2023/03/12 02:02:45;;;;;;;5.40;2.90;;;;;;;;;;12820781;19;20424;-66
2023/03/12 02:08:15;;;;;;;5.32;3.22;;;;;;;;;;12822650;19;20457;-66
2023/03/12 02:14:20;;;;;;;5.55;2.83;;;;;;;;;;12811120;19;20400;-66
2023/03/12 02:19:46;;;;;;;6.90;2.95;;;;;;;;;;12809562;19;20324;-67
2023/03/12 02:31:25;;;;;;;6.90;3.58;;;;;;;;;;12715102;19;2005717;-66
2023/03/12 02:36:15;;;;;;;9.15;3.72;;;;;;;;;;12821306;19;20437;-66
2023/03/12 02:40:44;;;;;;;8.50;3.50;;;;;;;;;;12821058;19;20437;-66
2023/03/12 02:51:21;;;;;;;7.47;3.83;;;;;;;;;;12821401;19;20327;-67
2023/03/12 02:56:18;;;;;;;5.35;3.60;;;;;;;;;;12820639;19;20367;-66
2023/03/12 03:01:40;;;;;;;7.03;3.63;;;;;;;;;;12825867;19;20709;-67
2023/03/12 03:07:26;;;;;;;7.57;4.32;;;;;;;;;;12724345;19;2004950;-66
2023/03/12 03:12:31;;;;;;;9.93;4.55;;;;;;;;;;12827640;19;20369;-66
2023/03/12 03:23:46;;;;;;;11.77;5.20;;;;;;;;;;12819262;19;20434;-68
2023/03/12 03:28:30;;;;;;;12.73;4.50;;;;;;;;;;12820449;19;20034;-67
2023/03/12 03:33:35;;;;;;;15.45;5.18;;;;;;;;;;12821788;19;21160;-66
2023/03/12 03:38:48;;;;;;;14.98;5.07;;;;;;;;;;12819302;19;20003;-67
2023/03/12 03:43:29;;;;;;;11.02;6.68;;;;;;;;;;12816134;19;20552;-67
2023/03/12 03:48:14;;;;;;;13.27;5.82;;;;;;;;;;12822731;19;20453;-67
2023/03/12 03:58:15;;;;;;;11.80;5.95;;;;;;;;;;12817344;19;20306;-67
2023/03/12 04:03:18;;;;;;;14.10;6.38;;;;;;;;;;12817776;19;20323;-66
2023/03/12 04:07:53;;;;;;;15.07;6.82;;;;;;;;;;12822284;19;20332;-68
2023/03/12 04:12:31;;;;;;;13.48;6.68;;;;;;;;;;12817485;19;20432;-66
2023/03/12 04:17:16;;;;;;;16.63;8.30;;;;;;;;;;12823983;19;20102;-67
2023/03/12 04:22:17;;;;;;;14.15;7.07;;;;;;;;;;12826002;19;20093;-67
2023/03/12 04:26:44;;;;;;;19.55;8.77;;;;;;;;;;12823791;19;20189;-67
2023/03/12 04:37:14;;;;;;;13.23;6.35;;;;;;;;;;12816105;19;20328;-67
2023/03/12 04:42:46;;;;;;;16.98;7.90;;;;;;;;;;12815193;19;20498;-67
2023/03/12 04:48:20;;;;;;;23.80;10.82;;;;;;;;;;12824602;19;20378;-67
2023/03/12 04:52:42;;;;;;;13.52;6.07;;;;;;;;;;12823735;19;20420;-67
2023/03/12 04:57:19;;;;;;;14.57;7.68;;;;;;;;;;12824501;19;20430;-68
2023/03/12 05:03:23;;;;;;;16.05;8.60;;;;;;;;;;12822437;19;20442;-66
2023/03/12 05:08:16;;;;;;;14.77;6.90;;;;;;;;;;12818430;19;20371;-68
2023/03/12 05:13:21;;;;;;;13.50;6.57;;;;;;;;;;12821776;19;20453;-67
2023/03/12 05:24:20;;;;;;;9.00;4.72;;;;;;;;;;12717256;19;2004964;-66
2023/03/12 05:29:11;;;;;;;10.48;5.95;;;;;;;;;;12820386;19;20433;-66
2023/03/12 05:34:48;;;;;;;7.77;4.57;;;;;;;;;;12823892;19;20509;-67
2023/03/12 05:44:52;;;;;;;8.77;5.32;;;;;;;;;;12818709;19;20014;-67
2023/03/12 05:49:34;;;;;;;10.52;4.93;;;;;;;;;;12817837;19;20295;-66
2023/03/12 05:54:36;;;;;;;9.07;4.65;;;;;;;;;;12816587;19;20333;-66
2023/03/12 05:59:48;;;;;;;9.80;4.75;;;;;;;;;;12810809;19;21517;-67
2023/03/12 06:04:49;;;;;;;9.80;5.13;;;;;;;;;;12812102;19;20315;-67
2023/03/12 06:09:48;;;;;;;12.18;5.22;;;;;;;;;;12815217;19;20314;-68
2023/03/12 06:14:47;;;;;;;11.27;5.05;;;;;;;;;;12813661;19;20429;-66
2023/03/12 06:19:24;;;;;;;11.88;5.28;;;;;;;;;;12813778;19;20363;-66
2023/03/12 06:24:25;;;;;;;7.60;4.00;;;;;;;;;;12813980;19;20358;-66
2023/03/12 06:29:17;;;;;;;12.73;7.32;;;;;;;;;;12812611;19;20465;-66
2023/03/12 06:34:05;;;;;;;25.75;9.68;;;;;;;;;;12815480;19;20395;-66
2023/03/12 07:14:50;;;;;;;11.98;5.72;;;;;;;;;;12815135;19;20614;-66
2023/03/12 07:20:27;;;;;;;13.45;6.03;;;;;;;;;;12828323;19;20433;-66
2023/03/12 07:25:27;;;;;;;11.48;5.82;;;;;;;;;;12818390;19;20551;-66
2023/03/12 07:30:21;;;;;;;20.55;10.10;;;;;;;;;;12818181;19;20341;-68
2023/03/12 07:35:15;;;;;;;15.13;7.95;;;;;;;;;;12819345;19;20370;-68
2023/03/12 07:40:25;;;;;;;10.73;6.13;;;;;;;;;;12820061;19;20439;-66
2023/03/12 07:45:21;;;;;;;11.98;4.78;;;;;;;;;;12817300;19;20014;-67
2023/03/12 07:50:13;;;;;;;13.13;6.78;;;;;;;;;;12818036;19;20543;-66
2023/03/12 08:01:19;;;;;;;12.48;5.13;;;;;;;;;;12714979;19;2004983;-66
2023/03/12 08:06:09;;;;;;;8.43;4.35;;;;;;;;;;12815851;19;20343;-66
2023/03/12 08:10:37;;;;;;;8.23;3.50;;;;;;;;;;12817233;19;20412;-66
2023/03/12 08:21:25;;;;;;;7.25;3.17;;;;;;;;;;12714211;19;2005003;-67
2023/03/12 08:26:12;;;;;;;7.25;3.67;;;;;;;;;;12815994;19;20426;-66
2023/03/12 08:31:14;;;;;;;4.35;2.45;;;;;;;;;;12818111;19;20433;-68
2023/03/12 08:36:13;;;;;;;4.47;2.78;;;;;;;;;;12817486;19;20449;-69
2023/03/12 08:41:11;;;;;;;10.40;3.50;;;;;;;;;;12818670;19;20425;-68
2023/03/12 08:51:53;;;;;;;13.07;3.90;;;;;;;;;;12817349;19;20449;-68
2023/03/12 08:57:20;;;;;;;7.32;3.38;;;;;;;;;;12820753;19;20422;-68
2023/03/12 09:02:43;;;;;;;6.25;2.33;;;;;;;;;;12817405;19;20306;-68
2023/03/12 09:08:28;;;;;;;5.28;2.65;;;;;;;;;;12817153;19;19999;-68
2023/03/12 09:19:24;;;;;;;9.88;3.85;;;;;;;;;;12798768;19;20336;-69
2023/03/12 09:24:47;;;;;;;11.90;5.55;;;;;;;;;;12799712;19;20010;-67
2023/03/12 09:30:25;;;;;;;5.47;2.72;;;;;;;;;;12800096;19;21112;-67
2023/03/12 09:35:49;;;;;;;13.95;3.55;;;;;;;;;;12799826;19;20445;-67
2023/03/12 09:41:15;;;;;;;4.40;2.20;;;;;;;;;;12794204;19;20316;-67
2023/03/12 09:46:44;;;;;;;4.25;2.17;;;;;;;;;;12800173;19;20007;-68
2023/03/12 09:52:04;;;;;;;5.03;2.53;;;;;;;;;;12797788;19;20378;-67
2023/03/12 09:57:33;;;;;;;4.72;2.33;;;;;;;;;;12799086;19;20311;-67
2023/03/12 10:03:01;;;;;;;8.50;3.05;;;;;;;;;;12796880;19;20422;-67
2023/03/12 10:08:25;;;;;;;5.03;1.73;;;;;;;;;;12797957;19;21187;-66
2023/03/12 10:13:46;;;;;;;5.93;1.92;;;;;;;;;;12797454;19;20047;-67
2023/03/12 10:19:19;;;;;;;6.93;2.67;;;;;;;;;;12797270;19;20007;-67
2023/03/12 10:24:44;;;;;;;4.30;1.55;;;;;;;;;;12794964;19;20369;-67
2023/03/12 10:30:13;;;;;;;9.45;4.15;;;;;;;;;;12796239;19;20481;-67
2023/03/12 10:35:39;;;;;;;5.82;2.33;;;;;;;;;;12798569;19;21106;-67
2023/03/12 10:41:08;;;;;;;12.30;3.72;;;;;;;;;;12795585;19;20006;-66
2023/03/12 10:46:50;;;;;;;7.80;3.90;;;;;;;;;;12795911;19;20374;-67
2023/03/12 10:52:09;;;;;;;13.02;3.05;;;;;;;;;;12801595;19;20425;-67
2023/03/12 10:57:31;;;;;;;5.88;2.72;;;;;;;;;;12808863;19;20017;-67
2023/03/12 11:03:08;;;;;;;4.90;2.13;;;;;;;;;;12810374;19;20430;-66
2023/03/12 11:08:34;;;;;;;3.92;1.80;;;;;;;;;;12807184;19;20465;-67
2023/03/12 11:14:11;;;;;;;4.78;2.05;;;;;;;;;;12807397;19;20327;-66
2023/03/12 11:19:39;;;;;;;5.43;1.70;;;;;;;;;;12808706;19;20369;-67
2023/03/12 11:25:04;;;;;;;7.90;4.53;;;;;;;;;;12807129;19;20533;-67
2023/03/12 11:30:33;;;;;;;5.88;2.53;;;;;;;;;;12815282;19;20490;-66
2023/03/12 11:42:20;;;;;;;4.05;1.73;;;;;;;;;;12825971;19;20011;-67
2023/03/12 11:47:34;;;;;;;3.42;1.40;;;;;;;;;;12827734;19;20464;-66
2023/03/12 11:59:13;;;;;;;5.25;2.40;;;;;;;;;;12724036;19;2004963;-66
2023/03/12 12:04:24;;;;;;;3.10;1.30;;;;;;;;;;12815337;19;20493;-65
2023/03/12 12:15:44;;;;;;;3.63;1.67;;;;;;;;;;12716834;19;2005106;-67
2023/03/12 12:20:53;;;;;;;4.53;2.03;;;;;;;;;;12820250;19;20224;-67
2023/03/12 12:25:49;;;;;;;4.32;1.73;;;;;;;;;;12818829;19;20447;-66
2023/03/12 12:31:31;;;;;;;6.50;3.25;;;;;;;;;;12817964;19;20634;-66
2023/03/12 12:36:35;;;;;;;3.33;1.60;;;;;;;;;;12820457;19;20431;-66
2023/03/12 12:41:52;;;;;;;5.13;2.38;;;;;;;;;;12817679;19;20417;-67
2023/03/12 12:58:40;;;;;;;4.15;1.70;;;;;;;;;;12815366;19;20438;-66
2023/03/12 13:09:49;;;;;;;3.28;1.70;;;;;;;;;;12814061;19;20354;-66
2023/03/12 13:14:39;;;;;;;4.72;1.67;;;;;;;;;;12813508;19;20010;-67
2023/03/12 13:26:12;;;;;;;6.03;2.67;;;;;;;;;;12717041;19;2005843;-67
2023/03/12 13:30:50;;;;;;;5.00;2.58;;;;;;;;;;12821258;19;20435;-66
2023/03/12 13:36:10;;;;;;;9.13;2.00;;;;;;;;;;12819825;19;20007;-67
2023/03/12 13:42:27;;;;;;;7.13;3.13;;;;;;;;;;12811938;19;20015;-67
2023/03/12 13:47:22;;;;;;;23.27;8.82;;;;;;;;;;12814554;19;20384;-67
2023/03/12 13:58:36;;;;;;;11.65;5.35;;;;;;;;;;12719141;19;2005144;-67
2023/03/12 14:03:14;;;;;;;8.73;3.45;;;;;;;;;;12814593;19;20436;-67
2023/03/12 14:14:47;;;;;;;12.50;5.82;;;;;;;;;;12717350;19;2006260;-67
2023/03/12 14:20:22;;;;;;;6.85;3.88;;;;;;;;;;12818821;19;20425;-67
2023/03/12 14:31:40;;;;;;;9.73;4.00;;;;;;;;;;12725781;19;2005499;-68
2023/03/12 14:37:19;;;;;;;7.97;3.42;;;;;;;;;;12725775;19;2004647;-67
2023/03/12 14:48:37;;;;;;;7.75;2.47;;;;;;;;;;12721247;19;2005106;-68
2023/03/12 14:53:29;;;;;;;6.38;3.17;;;;;;;;;;12822691;19;20420;-68
2023/03/12 15:09:53;;;;;;;11.07;3.17;;;;;;;;;;12820476;19;20761;-67
2023/03/12 15:14:43;;;;;;;8.32;3.85;;;;;;;;;;12822537;19;20547;-67
2023/03/12 15:25:31;;;;;;;11.75;4.35;;;;;;;;;;12818288;19;20447;-67
2023/03/12 15:30:28;;;;;;;;;;;;;;;;;;12818926;19;20318;-67
2023/03/12 15:42:18;;;;;;;19.85;7.43;;;;;;;;;;12716615;19;2004965;-67
2023/03/12 15:47:16;;;;;;;8.88;3.90;;;;;;;;;;12818193;19;20493;-66
2023/03/12 16:03:49;;;;;;;15.63;5.20;;;;;;;;;;12723492;19;2005503;-69
2023/03/12 16:09:11;;;;;;;14.52;5.88;;;;;;;;;;12826601;19;20338;-67
2023/03/12 16:13:37;;;;;;;14.07;5.88;;;;;;;;;;12826669;19;20372;-67
2023/03/12 16:18:40;;;;;;;28.75;10.98;;;;;;;;;;12822303;19;20501;-67
2023/03/12 16:23:17;;;;;;;32.10;14.00;;;;;;;;;;12820981;19;20537;-67
2023/03/12 16:34:26;;;;;;;30.50;13.77;;;;;;;;;;12714312;19;2005100;-68
2023/03/12 16:39:17;;;;;;;18.92;9.32;;;;;;;;;;12815297;19;20311;-66
2023/03/12 16:50:22;;;;;;;30.05;12.38;;;;;;;;;;12714836;19;2004698;-67
2023/03/12 16:55:24;;;;;;;41.85;20.10;;;;;;;;;;12814568;19;20461;-68
2023/03/12 16:59:48;;;;;;;62.53;26.48;;;;;;;;;;12817101;19;20430;-67
2023/03/12 17:04:35;;;;;;;70.60;31.38;;;;;;;;;;12814274;19;20524;-69
2023/03/12 17:10:16;;;;;;;41.90;17.33;;;;;;;;;;12814319;19;20576;-68
2023/03/12 17:14:51;;;;;;;51.22;20.80;;;;;;;;;;12815338;19;20469;-68
2023/03/12 17:19:28;;;;;;;37.95;14.13;;;;;;;;;;12822003;19;20014;-68
2023/03/12 17:29:44;;;;;;;22.90;9.45;;;;;;;;;;12820002;19;20737;-67
2023/03/12 17:34:24;;;;;;;43.88;15.43;;;;;;;;;;12817683;19;20314;-68
2023/03/12 17:39:06;;;;;;;24.52;10.95;;;;;;;;;;12823071;19;20583;-68
2023/03/12 17:44:14;;;;;;;24.15;9.95;;;;;;;;;;12819708;19;20565;-67
2023/03/12 17:48:43;;;;;;;26.05;11.40;;;;;;;;;;12817637;19;20364;-67
2023/03/12 17:53:40;;;;;;;14.57;6.63;;;;;;;;;;12820925;19;20451;-68
2023/03/12 17:59:04;;;;;;;12.95;5.95;;;;;;;;;;12821055;19;20370;-68
2023/03/12 18:04:19;;;;;;;10.30;4.53;;;;;;;;;;12816570;19;21922;-68
2023/03/12 18:09:32;;;;;;;17.67;7.97;;;;;;;;;;12819511;19;20469;-67
2023/03/12 18:14:10;;;;;;;16.40;6.78;;;;;;;;;;12817682;19;20448;-67
2023/03/12 18:24:13;;;;;;;11.75;6.63;;;;;;;;;;12809978;19;20527;-67
2023/03/12 18:41:16;;;;;;;43.17;19.33;;;;;;;;;;12708963;19;2005293;-68
2023/03/12 18:46:12;;;;;;;78.35;30.27;;;;;;;;;;12808700;19;20441;-67
2023/03/12 18:50:36;;;;;;;33.65;15.60;;;;;;;;;;12810944;19;20011;-68
2023/03/12 18:55:31;;;;;;;18.52;7.65;;;;;;;;;;12818638;19;20694;-69
2023/03/12 19:01:21;;;;;;;10.10;4.85;;;;;;;;;;12809166;19;20007;-68
2023/03/12 19:06:16;;;;;;;19.83;6.45;;;;;;;;;;12807409;19;20766;-67
2023/03/12 19:11:17;;;;;;;54.40;13.90;;;;;;;;;;12809589;19;20315;-68
2023/03/12 19:16:33;;;;;;;151.35;28.52;;;;;;;;;;12823231;19;20031;-67
2023/03/12 19:21:27;;;;;;;40.33;10.68;;;;;;;;;;12820596;19;20332;-68
2023/03/12 19:26:10;;;;;;;49.83;11.73;;;;;;;;;;12821210;19;20419;-69
2023/03/12 19:30:39;;;;;;;299.83;54.93;;;;;;;;;;12819556;19;20434;-68
2023/03/12 19:35:02;;;;;;;150.23;30.90;;;;;;;;;;12823433;19;20295;-69
2023/03/12 19:40:22;;;;;;;105.13;23.63;;;;;;;;;;12816691;19;20453;-68
2023/03/12 19:45:14;;;;;;;200.32;40.85;;;;;;;;;;12819369;19;20437;-68
2023/03/12 19:56:28;;;;;;;12.13;4.90;;;;;;;;;;12717947;19;2006149;-67
2023/03/12 20:01:20;;;;;;;15.10;4.57;;;;;;;;;;12818303;19;20318;-69
2023/03/12 20:05:44;;;;;;;13.13;5.45;;;;;;;;;;12819977;19;20533;-68
2023/03/12 20:22:12;;;;;;;9.55;4.35;;;;;;;;;;12825975;19;20329;-68
2023/03/12 20:26:41;;;;;;;10.80;4.28;;;;;;;;;;12823772;19;20421;-68
2023/03/12 20:31:32;;;;;;;8.27;4.32;;;;;;;;;;12824660;19;20476;-67
2023/03/12 20:36:18;;;;;;;13.18;5.10;;;;;;;;;;12824423;19;20362;-67
2023/03/12 20:40:45;;;;;;;9.30;4.00;;;;;;;;;;12823406;19;20301;-68
2023/03/12 20:51:30;;;;;;;49.03;15.18;;;;;;;;;;12823047;19;20295;-67
2023/03/12 20:56:32;;;;;;;11.32;5.22;;;;;;;;;;12823491;19;20485;-67
2023/03/12 21:01:12;;;;;;;10.40;4.90;;;;;;;;;;12824508;19;20340;-67
2023/03/12 21:11:40;;;;;;;13.88;6.10;;;;;;;;;;12814431;19;20018;-68
2023/03/12 21:16:41;;;;;;;;;;;;;;;;;;12815388;19;20497;-67
2023/03/12 21:21:53;;;;;;;9.25;4.07;;;;;;;;;;12819328;19;20335;-68
2023/03/12 21:27:15;;;;;;;13.15;4.78;;;;;;;;;;12814139;19;20578;-68
2023/03/12 21:32:14;;;;;;;11.02;5.05;;;;;;;;;;12815747;19;20307;-68
2023/03/12 21:36:36;;;;;;;9.38;5.20;;;;;;;;;;12815229;19;20074;-68
2023/03/12 21:52:38;;;;;;;9.70;4.47;;;;;;;;;;12816739;19;20287;-66
2023/03/12 21:57:12;;;;;;;7.18;4.05;;;;;;;;;;12821716;19;20375;-67
2023/03/12 22:01:48;;;;;;;7.95;3.95;;;;;;;;;;12820161;19;20374;-68
2023/03/12 22:11:36;;;;;;;9.90;4.40;;;;;;;;;;12819962;19;20318;-67
2023/03/12 22:22:27;;;;;;;11.57;4.80;;;;;;;;;;12706895;19;2006499;-67
2023/03/12 22:27:09;;;;;;;10.60;4.20;;;;;;;;;;12807788;19;20434;-68
2023/03/12 22:31:52;;;;;;;12.00;5.20;;;;;;;;;;12804892;19;20629;-67
2023/03/12 22:36:33;;;;;;;9.40;4.50;;;;;;;;;;12805734;19;20389;-68
2023/03/12 22:41:30;;;;;;;11.35;5.32;;;;;;;;;;12807468;19;20663;-67
2023/03/12 22:46:35;;;;;;;19.40;6.13;;;;;;;;;;12797673;19;20367;-67
2023/03/12 22:52:30;;;;;;;13.80;5.77;;;;;;;;;;12809308;19;20876;-68
2023/03/12 22:57:46;;;;;;;9.85;5.10;;;;;;;;;;12807720;19;20010;-68
2023/03/12 23:02:39;;;;;;;13.90;5.88;;;;;;;;;;12808519;19;20022;-67
2023/03/12 23:12:27;;;;;;;15.77;5.90;;;;;;;;;;12821734;19;20442;-67
2023/03/12 23:17:16;;;;;;;14.93;5.20;;;;;;;;;;12823739;19;20430;-67
2023/03/12 23:22:17;;;;;;;15.05;5.38;;;;;;;;;;12825144;19;20295;-67
2023/03/12 23:26:55;;;;;;;11.60;5.43;;;;;;;;;;12827069;19;20429;-67
2023/03/12 23:42:44;;;;;;;15.82;4.88;;;;;;;;;;12825921;19;20831;-68
2023/03/12 23:48:31;;;;;;;10.77;5.18;;;;;;;;;;12828083;19;20469;-68
2023/03/12 23:54:27;;;;;;;11.00;5.07;;;;;;;;;;12825910;19;20058;-69
2023/03/12 23:59:11;;;;;;;14.82;6.00;;;;;;;;;;12822658;19;20426;-68
